createdAt,value
2019-05-22T00:00:31.793Z,101150.23
2019-05-22T00:05:29.705Z,101145.39
2019-05-22T00:10:26.102Z,101150.78
2019-05-22T00:15:21.510Z,101150.94
2019-05-22T00:20:15.740Z,101148.15
2019-05-22T00:25:14.643Z,101152.00
2019-05-22T00:30:11.118Z,101152.05
2019-05-22T00:35:08.295Z,101160.17
2019-05-22T00:40:04.415Z,101156.03
2019-05-22T00:44:58.942Z,101160.88
2019-05-22T00:49:54.739Z,101156.58
2019-05-22T00:55:06.712Z,101166.66
2019-05-22T01:00:20.036Z,101166.12
2019-05-22T01:05:15.505Z,101167.28
2019-05-22T01:10:11.631Z,101171.49
2019-05-22T01:15:08.471Z,101181.29
2019-05-22T01:20:05.572Z,101185.23
2019-05-22T01:25:00.339Z,101188.80
2019-05-22T01:29:55.506Z,101188.38
2019-05-22T01:34:50.536Z,101191.50
2019-05-22T01:40:04.095Z,101192.77
2019-05-22T01:45:05.611Z,101196.80
2019-05-22T01:49:55.732Z,101201.65
2019-05-22T01:54:52.154Z,101207.40
2019-05-22T01:59:47.041Z,101210.98
2019-05-22T02:04:42.194Z,101212.33
2019-05-22T02:09:40.348Z,101213.60
2019-05-22T02:14:34.436Z,101216.37
2019-05-22T02:19:30.733Z,101216.25
2019-05-22T02:24:24.463Z,101221.86
2019-05-22T02:29:20.685Z,101217.20
2019-05-22T02:34:14.584Z,101221.22
2019-05-22T02:39:23.574Z,101228.29
2019-05-22T02:44:18.643Z,101229.24
2019-05-22T02:49:14.084Z,101234.77
2019-05-22T02:54:09.587Z,101239.89
2019-05-22T02:59:08.282Z,101232.39
2019-05-22T03:04:04.641Z,101234.68
2019-05-22T03:09:25.620Z,101239.95
2019-05-22T03:14:21.535Z,101243.82
2019-05-22T03:19:25.832Z,101253.13
2019-05-22T03:24:20.600Z,101255.77
2019-05-22T03:29:16.839Z,101256.59
2019-05-22T03:34:12.104Z,101264.63
2019-05-22T03:39:07.334Z,101273.98
2019-05-22T03:44:03.025Z,101279.50
2019-05-22T03:48:57.013Z,101286.37
2019-05-22T03:53:51.134Z,101284.36
2019-05-22T03:58:45.163Z,101286.00
2019-05-22T04:03:39.741Z,101284.89
2019-05-22T04:08:34.196Z,101293.31
2019-05-22T04:13:29.009Z,101292.65
2019-05-22T04:18:24.036Z,101299.09
2019-05-22T04:23:18.217Z,101314.50
2019-05-22T04:28:12.321Z,101316.45
2019-05-22T04:33:06.316Z,101317.48
2019-05-22T04:38:00.414Z,101320.65
2019-05-22T04:42:54.090Z,101318.65
2019-05-22T04:47:58.300Z,101320.59
2019-05-22T04:52:53.179Z,101321.24
2019-05-22T04:57:47.828Z,101321.78
2019-05-22T05:02:41.618Z,101328.45
2019-05-22T05:07:36.021Z,101336.21
2019-05-22T05:12:30.125Z,101333.26
2019-05-22T05:17:24.019Z,101336.54
2019-05-22T05:22:31.333Z,101340.80
2019-05-22T05:27:25.096Z,101340.85
2019-05-22T05:32:19.701Z,101345.40
2019-05-22T05:37:15.804Z,101350.08
2019-05-22T05:42:09.441Z,101359.74
2019-05-22T05:47:03.287Z,101360.83
2019-05-22T05:51:57.551Z,101363.03
2019-05-22T05:56:51.705Z,101366.01
2019-05-22T06:01:48.769Z,101367.02
2019-05-22T06:07:21.257Z,101369.77
2019-05-22T06:12:15.376Z,101368.63
2019-05-22T06:18:14.363Z,101369.08
2019-05-22T06:24:06.056Z,101372.77
2019-05-22T06:29:00.303Z,101379.53
2019-05-22T06:33:54.325Z,101387.87
2019-05-22T06:38:58.700Z,101383.53
2019-05-22T06:44:42.856Z,101384.16
2019-05-22T06:49:48.574Z,101384.23
2019-05-22T06:54:42.567Z,101385.98
2019-05-22T06:59:36.531Z,101389.31
2019-05-22T07:04:30.466Z,101381.65
2019-05-22T07:09:25.150Z,101389.22
2019-05-22T07:14:18.972Z,101391.23
2019-05-22T07:19:12.965Z,101388.64
2019-05-22T07:24:07.370Z,101391.02
2019-05-22T07:29:05.055Z,101400.19
2019-05-22T07:33:57.096Z,101396.35
2019-05-22T07:38:50.877Z,101401.41
2019-05-22T07:43:44.335Z,101406.16
2019-05-22T07:48:37.807Z,101408.42
2019-05-22T07:53:31.497Z,101411.45
2019-05-22T07:58:27.764Z,101405.88
2019-05-22T08:03:22.945Z,101402.33
2019-05-22T08:08:18.891Z,101404.03
2019-05-22T08:13:13.071Z,101408.39
2019-05-22T08:18:10.774Z,101407.70
2019-05-22T08:23:06.595Z,101410.36
2019-05-22T08:28:01.285Z,101397.70
2019-05-22T08:32:57.999Z,101398.42
2019-05-22T08:37:52.839Z,101405.69
2019-05-22T08:42:48.515Z,101405.89
2019-05-22T08:47:42.612Z,101408.99
2019-05-22T08:52:37.686Z,101409.30
2019-05-22T08:57:31.744Z,101403.84
2019-05-22T09:02:25.706Z,101405.20
2019-05-22T09:07:20.619Z,101399.41
2019-05-22T09:12:16.141Z,101399.00
2019-05-22T09:17:11.107Z,101385.09
2019-05-22T09:22:06.591Z,101387.34
2019-05-22T09:27:05.263Z,101384.31
2019-05-22T09:31:59.027Z,101399.14
2019-05-22T09:36:53.078Z,101399.75
2019-05-22T09:41:49.263Z,101418.95
2019-05-22T09:46:42.864Z,101396.53
2019-05-22T09:51:36.423Z,101410.62
2019-05-22T09:56:30.736Z,101410.80
2019-05-22T10:01:24.044Z,101409.21
2019-05-22T10:06:21.491Z,101405.25
2019-05-22T10:11:14.514Z,101405.24
2019-05-22T10:16:08.207Z,101421.74
2019-05-22T10:21:01.950Z,101419.80
2019-05-22T10:25:55.597Z,101411.91
2019-05-22T10:30:49.143Z,101413.30
2019-05-22T10:35:43.032Z,101417.90
2019-05-22T10:40:38.352Z,101410.56
2019-05-22T10:45:32.225Z,101407.91
2019-05-22T10:50:25.725Z,101408.45
2019-05-22T10:55:20.018Z,101403.32
2019-05-22T11:00:15.503Z,101411.85
2019-05-22T11:05:09.830Z,101410.25
2019-05-22T11:10:04.486Z,101409.76
2019-05-22T11:14:58.130Z,101413.71
2019-05-22T11:19:51.813Z,101407.91
2019-05-22T11:24:45.499Z,101413.80
2019-05-22T11:29:42.477Z,101406.53
2019-05-22T11:34:37.102Z,101407.36
2019-05-22T11:39:39.321Z,101401.34
2019-05-22T11:44:28.349Z,101393.95
2019-05-22T11:49:22.938Z,101393.59
2019-05-22T11:54:16.968Z,101398.41
2019-05-22T11:59:12.555Z,101397.95
2019-05-22T12:04:10.837Z,101393.42
2019-05-22T12:09:08.411Z,101389.45
2019-05-22T12:14:02.803Z,101388.54
2019-05-22T12:18:59.305Z,101391.63
2019-05-22T12:23:53.757Z,101392.98
2019-05-22T12:28:47.366Z,101387.83
2019-05-22T12:33:42.409Z,101387.80
2019-05-22T12:38:36.081Z,101388.50
2019-05-22T12:43:30.610Z,101389.12
2019-05-22T12:48:25.186Z,101377.97
2019-05-22T12:53:21.194Z,101383.75
2019-05-22T12:58:14.956Z,101368.97
2019-05-22T13:03:09.307Z,101365.06
2019-05-22T13:08:03.622Z,101354.52
2019-05-22T13:12:57.240Z,101362.63
2019-05-22T13:17:51.605Z,101358.62
2019-05-22T13:22:47.894Z,101361.73
2019-05-22T13:27:41.434Z,101357.87
2019-05-22T13:32:37.244Z,101354.12
2019-05-22T13:37:31.198Z,101354.11
2019-05-22T13:42:25.938Z,101351.75
2019-05-22T13:47:21.304Z,101345.88
2019-05-22T13:52:15.812Z,101341.63
2019-05-22T13:57:10.487Z,101345.89
2019-05-22T14:02:03.950Z,101335.70
2019-05-22T14:06:57.450Z,101334.97
2019-05-22T14:11:51.559Z,101329.81
2019-05-22T14:16:48.970Z,101318.72
2019-05-22T14:21:40.057Z,101320.94
2019-05-22T14:26:33.660Z,101323.39
2019-05-22T14:31:27.267Z,101325.48
2019-05-22T14:36:20.752Z,101326.62
2019-05-22T14:41:15.524Z,101327.11
2019-05-22T14:46:09.217Z,101325.03
2019-05-22T14:51:03.301Z,101329.45
2019-05-22T14:55:58.771Z,101326.81
2019-05-22T15:00:53.407Z,101325.08
2019-05-22T15:05:47.117Z,101326.20
2019-05-22T15:10:40.824Z,101327.72
2019-05-22T15:15:35.284Z,101325.61
2019-05-22T15:20:36.737Z,101316.17
2019-05-22T15:25:30.819Z,101318.44
2019-05-22T15:30:24.700Z,101316.42
2019-05-22T15:35:18.894Z,101320.50
2019-05-22T15:40:13.040Z,101316.23
2019-05-22T15:45:13.464Z,101313.62
2019-05-22T15:50:08.880Z,101317.06
2019-05-22T15:55:02.608Z,101311.42
2019-05-22T15:59:56.591Z,101308.66
2019-05-22T16:04:51.029Z,101310.16
2019-05-22T16:09:46.970Z,101301.44
2019-05-22T16:14:40.915Z,101303.72
2019-05-22T16:19:35.539Z,101307.36
2019-05-22T16:24:29.123Z,101294.84
2019-05-22T16:29:24.148Z,101290.58
2019-05-22T16:34:17.936Z,101293.36
2019-05-22T16:39:13.596Z,101293.05
2019-05-22T16:44:07.177Z,101295.02
2019-05-22T16:49:00.719Z,101292.72
2019-05-22T16:54:00.567Z,101297.05
2019-05-22T16:58:55.275Z,101292.61
2019-05-22T17:03:53.720Z,101281.86
2019-05-22T17:08:47.404Z,101281.51
2019-05-22T17:13:43.375Z,101281.11
2019-05-22T17:18:47.705Z,101285.34
2019-05-22T17:23:33.833Z,101289.54
2019-05-22T17:28:28.791Z,101290.41
2019-05-22T17:33:22.751Z,101285.94
2019-05-22T17:38:19.012Z,101291.21
2019-05-22T17:43:13.806Z,101290.58
2019-05-22T17:48:09.244Z,101289.91
2019-05-22T17:53:04.107Z,101289.20
2019-05-22T17:57:59.467Z,101284.74
2019-05-22T18:02:53.191Z,101287.39
2019-05-22T18:07:48.696Z,101288.37
2019-05-22T18:12:42.422Z,101288.19
2019-05-22T18:17:37.877Z,101294.41
2019-05-22T18:22:32.452Z,101290.58
2019-05-22T18:27:27.027Z,101288.41
2019-05-22T18:32:21.055Z,101286.42
2019-05-22T18:37:15.239Z,101284.30
2019-05-22T18:42:08.767Z,101288.45
2019-05-22T18:47:02.847Z,101288.59
2019-05-22T18:51:56.604Z,101290.52
2019-05-22T18:56:50.398Z,101288.33
2019-05-22T19:01:44.095Z,101294.95
2019-05-22T19:06:38.898Z,101289.63
2019-05-22T19:11:34.292Z,101292.36
2019-05-22T19:16:28.173Z,101298.02
2019-05-22T19:21:21.953Z,101301.94
2019-05-22T19:26:15.677Z,101300.02
2019-05-22T19:31:09.547Z,101302.13
2019-05-22T19:36:03.661Z,101311.59
2019-05-22T19:40:57.843Z,101312.89
2019-05-22T19:45:53.505Z,101314.32
2019-05-22T19:50:48.562Z,101320.13
2019-05-22T19:55:45.175Z,101326.68
2019-05-22T20:00:40.048Z,101330.17
2019-05-22T20:05:34.857Z,101334.96
2019-05-22T20:10:28.687Z,101331.78
2019-05-22T20:15:22.495Z,101331.09
2019-05-22T20:20:19.128Z,101333.36
2019-05-22T20:25:14.877Z,101334.72
2019-05-22T20:30:11.695Z,101332.40
2019-05-22T20:35:06.204Z,101332.65
2019-05-22T20:40:00.180Z,101334.97
2019-05-22T20:44:53.782Z,101340.98
2019-05-22T20:49:47.435Z,101343.94
2019-05-22T20:54:46.524Z,101334.72
2019-05-22T20:59:43.442Z,101337.34
2019-05-22T21:04:36.932Z,101338.52
2019-05-22T21:09:36.250Z,101339.97
2019-05-22T21:14:29.606Z,101347.41
2019-05-22T21:19:24.584Z,101345.02
2019-05-22T21:24:19.441Z,101345.52
2019-05-22T21:29:12.830Z,101347.86
2019-05-22T21:34:06.722Z,101349.06
2019-05-22T21:39:00.676Z,101349.02
2019-05-22T21:43:55.301Z,101352.19
2019-05-22T21:48:52.901Z,101348.22
2019-05-22T21:53:46.965Z,101347.33
2019-05-22T21:58:41.053Z,101348.19
2019-05-22T22:03:37.348Z,101351.34
2019-05-22T22:08:31.317Z,101355.50
2019-05-22T22:13:26.760Z,101360.22
2019-05-22T22:18:24.745Z,101360.69
2019-05-22T22:23:18.887Z,101361.14
2019-05-22T22:28:15.188Z,101360.11
2019-05-22T22:33:11.649Z,101366.53
2019-05-22T22:38:06.515Z,101363.23
2019-05-22T22:43:02.844Z,101373.14
2019-05-22T22:47:58.040Z,101375.25
2019-05-22T22:52:51.907Z,101371.78
2019-05-22T22:57:47.943Z,101379.02
2019-05-22T23:02:43.324Z,101381.88
2019-05-22T23:07:37.249Z,101380.52
2019-05-22T23:12:31.287Z,101380.53
2019-05-22T23:17:25.228Z,101372.89
2019-05-22T23:22:23.833Z,101368.31
2019-05-22T23:27:19.595Z,101369.52
2019-05-22T23:32:17.516Z,101374.84
2019-05-22T23:37:14.902Z,101370.09
2019-05-22T23:42:15.485Z,101368.97
2019-05-22T23:47:10.991Z,101374.78
2019-05-22T23:52:06.254Z,101374.53
2019-05-22T23:57:01.278Z,101380.44
